sensor_id;sensor_type;location;lat;lon;timestamp;P1;durP1;ratioP1;P2;durP2;ratioP2
17032;SDS011;63208;52.178;21.016;2023-01-25T02:12:07;4.37;;;2.70;;
17032;SDS011;63208;52.178;21.016;2023-01-25T02:14:36;9.37;;;4.93;;
17032;SDS011;63208;52.178;21.016;2023-01-25T02:17:11;4.73;;;3.60;;
17032;SDS011;63208;52.178;21.016;2023-01-25T02:19:40;4.50;;;3.53;;
17032;SDS011;63208;52.178;21.016;2023-01-25T02:22:13;6.77;;;4.20;;
17032;SDS011;63208;52.178;21.016;2023-01-25T02:24:49;4.60;;;2.73;;
17032;SDS011;63208;52.178;21.016;2023-01-25T02:27:27;5.90;;;3.67;;
17032;SDS011;63208;52.178;21.016;2023-01-25T02:29:54;3.33;;;2.83;;
17032;SDS011;63208;52.178;21.016;2023-01-25T02:32:21;4.07;;;2.80;;
17032;SDS011;63208;52.178;21.016;2023-01-25T02:34:48;5.83;;;3.23;;
17032;SDS011;63208;52.178;21.016;2023-01-25T02:37:16;5.40;;;3.20;;
17032;SDS011;63208;52.178;21.016;2023-01-25T02:39:43;4.67;;;3.43;;
17032;SDS011;63208;52.178;21.016;2023-01-25T02:42:12;8.77;;;4.97;;
17032;SDS011;63208;52.178;21.016;2023-01-25T02:44:39;8.73;;;3.63;;
17032;SDS011;63208;52.178;21.016;2023-01-25T02:47:07;2.83;;;1.50;;
17032;SDS011;63208;52.178;21.016;2023-01-25T02:49:35;3.20;;;1.90;;
17032;SDS011;63208;52.178;21.016;2023-01-25T02:52:03;3.53;;;2.10;;
17032;SDS011;63208;52.178;21.016;2023-01-25T02:54:31;5.60;;;2.93;;
17032;SDS011;63208;52.178;21.016;2023-01-25T02:56:58;3.50;;;2.70;;
17032;SDS011;63208;52.178;21.016;2023-01-25T02:59:27;3.23;;;2.57;;
17032;SDS011;63208;52.178;21.016;2023-01-25T03:01:54;3.90;;;1.90;;
17032;SDS011;63208;52.178;21.016;2023-01-25T03:04:21;4.10;;;2.40;;
17032;SDS011;63208;52.178;21.016;2023-01-25T03:06:49;3.17;;;1.97;;
17032;SDS011;63208;52.178;21.016;2023-01-25T03:09:17;4.13;;;2.60;;
17032;SDS011;63208;52.178;21.016;2023-01-25T03:11:45;6.10;;;3.17;;
17032;SDS011;63208;52.178;21.016;2023-01-25T03:14:12;1.47;;;1.37;;
17032;SDS011;63208;52.178;21.016;2023-01-25T03:16:42;3.93;;;2.40;;
17032;SDS011;63208;52.178;21.016;2023-01-25T03:19:09;3.23;;;2.30;;
17032;SDS011;63208;52.178;21.016;2023-01-25T03:21:39;2.03;;;1.83;;
17032;SDS011;63208;52.178;21.016;2023-01-25T03:24:07;2.67;;;2.20;;
17032;SDS011;63208;52.178;21.016;2023-01-25T03:26:35;3.30;;;2.50;;
17032;SDS011;63208;52.178;21.016;2023-01-25T03:29:22;1.10;;;1.00;;
17032;SDS011;63208;52.178;21.016;2023-01-25T03:31:51;1.77;;;1.30;;
17032;SDS011;63208;52.178;21.016;2023-01-25T03:40:47;2.40;;;1.17;;
17032;SDS011;63208;52.178;21.016;2023-01-25T03:45:51;0.80;;;0.80;;
17032;SDS011;63208;52.178;21.016;2023-01-25T03:51:42;1.50;;;1.40;;
17032;SDS011;63208;52.178;21.016;2023-01-25T04:02:54;2.63;;;2.30;;
17032;SDS011;63208;52.178;21.016;2023-01-25T04:07:53;7.17;;;2.63;;
17032;SDS011;63208;52.178;21.016;2023-01-25T04:25:34;5.40;;;2.60;;
17032;SDS011;63208;52.178;21.016;2023-01-25T04:28:01;6.00;;;3.07;;
17032;SDS011;63208;52.178;21.016;2023-01-25T04:30:32;4.77;;;3.57;;
17032;SDS011;63208;52.178;21.016;2023-01-25T04:33:02;3.97;;;2.73;;
17032;SDS011;63208;52.178;21.016;2023-01-25T04:35:30;5.90;;;2.97;;
17032;SDS011;63208;52.178;21.016;2023-01-25T04:37:58;5.20;;;2.97;;
17032;SDS011;63208;52.178;21.016;2023-01-25T04:40:26;4.53;;;2.90;;
17032;SDS011;63208;52.178;21.016;2023-01-25T04:42:55;6.60;;;3.23;;
17032;SDS011;63208;52.178;21.016;2023-01-25T04:45:22;5.27;;;3.40;;
17032;SDS011;63208;52.178;21.016;2023-01-25T04:47:56;6.93;;;3.53;;
17032;SDS011;63208;52.178;21.016;2023-01-25T04:50:24;3.87;;;3.30;;
17032;SDS011;63208;52.178;21.016;2023-01-25T04:52:51;9.20;;;4.00;;
17032;SDS011;63208;52.178;21.016;2023-01-25T04:55:19;3.17;;;2.73;;
17032;SDS011;63208;52.178;21.016;2023-01-25T04:57:47;4.77;;;3.67;;
17032;SDS011;63208;52.178;21.016;2023-01-25T05:00:17;6.20;;;3.80;;
17032;SDS011;63208;52.178;21.016;2023-01-25T05:09:14;7.83;;;4.00;;
17032;SDS011;63208;52.178;21.016;2023-01-25T05:17:16;7.77;;;4.20;;
17032;SDS011;63208;52.178;21.016;2023-01-25T05:22:16;6.77;;;4.00;;
17032;SDS011;63208;52.178;21.016;2023-01-25T05:24:46;12.60;;;5.87;;
17032;SDS011;63208;52.178;21.016;2023-01-25T05:30:02;9.97;;;4.77;;
17032;SDS011;63208;52.178;21.016;2023-01-25T05:38:19;10.20;;;5.57;;
17032;SDS011;63208;52.178;21.016;2023-01-25T05:43:17;12.67;;;5.43;;
17032;SDS011;63208;52.178;21.016;2023-01-25T05:47:08;14.63;;;7.07;;
17032;SDS011;63208;52.178;21.016;2023-01-25T05:49:14;11.07;;;6.03;;
17032;SDS011;63208;52.178;21.016;2023-01-25T05:51:42;17.60;;;7.33;;
17032;SDS011;63208;52.178;21.016;2023-01-25T05:54:13;14.40;;;6.47;;
17032;SDS011;63208;52.178;21.016;2023-01-25T05:56:41;12.37;;;6.60;;
17032;SDS011;63208;52.178;21.016;2023-01-25T06:05:51;18.53;;;7.10;;
17032;SDS011;63208;52.178;21.016;2023-01-25T06:11:43;10.13;;;4.17;;
17032;SDS011;63208;52.178;21.016;2023-01-25T06:16:37;16.47;;;6.57;;
17032;SDS011;63208;52.178;21.016;2023-01-25T06:19:16;7.67;;;3.93;;
17032;SDS011;63208;52.178;21.016;2023-01-25T06:24:49;8.33;;;3.67;;
17032;SDS011;63208;52.178;21.016;2023-01-25T06:27:20;10.47;;;5.40;;
17032;SDS011;63208;52.178;21.016;2023-01-25T06:32:31;17.97;;;6.00;;
17032;SDS011;63208;52.178;21.016;2023-01-25T06:46:58;15.73;;;7.27;;
17032;SDS011;63208;52.178;21.016;2023-01-25T06:55:59;13.10;;;6.07;;
17032;SDS011;63208;52.178;21.016;2023-01-25T06:58:42;13.17;;;5.83;;
17032;SDS011;63208;52.178;21.016;2023-01-25T07:01:12;20.37;;;9.37;;
17032;SDS011;63208;52.178;21.016;2023-01-25T07:03:56;18.63;;;8.03;;
17032;SDS011;63208;52.178;21.016;2023-01-25T07:06:24;14.70;;;7.53;;
17032;SDS011;63208;52.178;21.016;2023-01-25T07:09:00;21.70;;;9.70;;
17032;SDS011;63208;52.178;21.016;2023-01-25T07:12:21;18.63;;;8.67;;
17032;SDS011;63208;52.178;21.016;2023-01-25T07:17:47;13.07;;;5.93;;
17032;SDS011;63208;52.178;21.016;2023-01-25T07:28:41;14.33;;;6.30;;
17032;SDS011;63208;52.178;21.016;2023-01-25T07:39:46;8.87;;;4.10;;
17032;SDS011;63208;52.178;21.016;2023-01-25T07:45:13;11.77;;;6.07;;
17032;SDS011;63208;52.178;21.016;2023-01-25T08:04:37;21.67;;;9.80;;
17032;SDS011;63208;52.178;21.016;2023-01-25T08:10:02;16.60;;;7.60;;
17032;SDS011;63208;52.178;21.016;2023-01-25T08:15:03;25.23;;;8.40;;
17032;SDS011;63208;52.178;21.016;2023-01-25T08:17:33;17.87;;;8.43;;
17032;SDS011;63208;52.178;21.016;2023-01-25T08:23:04;11.53;;;5.93;;
17032;SDS011;63208;52.178;21.016;2023-01-25T08:25:40;16.70;;;7.80;;
17032;SDS011;63208;52.178;21.016;2023-01-25T08:35:02;9.47;;;5.83;;
17032;SDS011;63208;52.178;21.016;2023-01-25T08:37:38;25.17;;;9.23;;
17032;SDS011;63208;52.178;21.016;2023-01-25T08:40:33;24.20;;;9.43;;
17032;SDS011;63208;52.178;21.016;2023-01-25T08:43:11;19.67;;;7.20;;
17032;SDS011;63208;52.178;21.016;2023-01-25T08:45:39;11.80;;;5.77;;
17032;SDS011;63208;52.178;21.016;2023-01-25T08:48:12;20.67;;;9.47;;
17032;SDS011;63208;52.178;21.016;2023-01-25T08:50:44;14.07;;;7.17;;
17032;SDS011;63208;52.178;21.016;2023-01-25T08:56:16;14.80;;;7.70;;
17032;SDS011;63208;52.178;21.016;2023-01-25T09:01:40;19.77;;;9.60;;
17032;SDS011;63208;52.178;21.016;2023-01-25T09:04:10;22.30;;;8.57;;
17032;SDS011;63208;52.178;21.016;2023-01-25T09:06:38;13.83;;;6.80;;
17032;SDS011;63208;52.178;21.016;2023-01-25T09:09:13;14.37;;;7.80;;
17032;SDS011;63208;52.178;21.016;2023-01-25T09:11:50;26.20;;;10.00;;
17032;SDS011;63208;52.178;21.016;2023-01-25T09:14:17;22.47;;;9.23;;
17032;SDS011;63208;52.178;21.016;2023-01-25T09:16:48;23.17;;;10.77;;
17032;SDS011;63208;52.178;21.016;2023-01-25T09:19:16;15.60;;;8.97;;
17032;SDS011;63208;52.178;21.016;2023-01-25T09:24:57;15.10;;;6.50;;
17032;SDS011;63208;52.178;21.016;2023-01-25T09:27:32;20.90;;;9.33;;
17032;SDS011;63208;52.178;21.016;2023-01-25T09:30:07;12.87;;;9.23;;
17032;SDS011;63208;52.178;21.016;2023-01-25T09:32:36;22.67;;;8.40;;
17032;SDS011;63208;52.178;21.016;2023-01-25T09:35:07;17.90;;;9.30;;
17032;SDS011;63208;52.178;21.016;2023-01-25T09:37:35;22.50;;;8.33;;
17032;SDS011;63208;52.178;21.016;2023-01-25T09:40:03;21.70;;;9.87;;
17032;SDS011;63208;52.178;21.016;2023-01-25T09:42:42;16.27;;;7.40;;
17032;SDS011;63208;52.178;21.016;2023-01-25T09:45:31;17.20;;;8.07;;
17032;SDS011;63208;52.178;21.016;2023-01-25T09:48:01;12.60;;;6.33;;
17032;SDS011;63208;52.178;21.016;2023-01-25T09:50:36;20.87;;;9.63;;
17032;SDS011;63208;52.178;21.016;2023-01-25T10:11:31;17.50;;;7.03;;
17032;SDS011;63208;52.178;21.016;2023-01-25T10:17:01;26.13;;;9.20;;
17032;SDS011;63208;52.178;21.016;2023-01-25T10:19:34;23.17;;;10.03;;
17032;SDS011;63208;52.178;21.016;2023-01-25T10:22:21;22.70;;;8.90;;
17032;SDS011;63208;52.178;21.016;2023-01-25T10:24:59;20.70;;;8.53;;
17032;SDS011;63208;52.178;21.016;2023-01-25T10:27:46;16.43;;;6.93;;
17032;SDS011;63208;52.178;21.016;2023-01-25T10:33:45;19.67;;;9.03;;
17032;SDS011;63208;52.178;21.016;2023-01-25T10:36:16;27.37;;;10.70;;
17032;SDS011;63208;52.178;21.016;2023-01-25T10:38:47;20.33;;;8.63;;
17032;SDS011;63208;52.178;21.016;2023-01-25T10:41:25;23.67;;;9.90;;
17032;SDS011;63208;52.178;21.016;2023-01-25T10:44:16;15.87;;;8.37;;
17032;SDS011;63208;52.178;21.016;2023-01-25T10:46:52;22.07;;;10.17;;
17032;SDS011;63208;52.178;21.016;2023-01-25T10:49:28;22.33;;;9.60;;
17032;SDS011;63208;52.178;21.016;2023-01-25T10:55:45;24.90;;;10.03;;
17032;SDS011;63208;52.178;21.016;2023-01-25T10:58:28;21.13;;;10.53;;
17032;SDS011;63208;52.178;21.016;2023-01-25T11:00:58;16.53;;;7.63;;
17032;SDS011;63208;52.178;21.016;2023-01-25T11:07:23;17.93;;;9.47;;
17032;SDS011;63208;52.178;21.016;2023-01-25T11:12:25;30.37;;;13.27;;
17032;SDS011;63208;52.178;21.016;2023-01-25T11:18:03;20.57;;;9.63;;
17032;SDS011;63208;52.178;21.016;2023-01-25T11:20:31;20.20;;;8.93;;
17032;SDS011;63208;52.178;21.016;2023-01-25T11:22:59;35.53;;;13.47;;
17032;SDS011;63208;52.178;21.016;2023-01-25T11:25:27;26.37;;;11.40;;
17032;SDS011;63208;52.178;21.016;2023-01-25T11:34:01;35.83;;;14.60;;
17032;SDS011;63208;52.178;21.016;2023-01-25T11:36:46;42.43;;;18.60;;
17032;SDS011;63208;52.178;21.016;2023-01-25T11:39:29;31.23;;;12.83;;
17032;SDS011;63208;52.178;21.016;2023-01-25T11:42:07;32.67;;;12.63;;
17032;SDS011;63208;52.178;21.016;2023-01-25T11:45:31;25.60;;;10.20;;
17032;SDS011;63208;52.178;21.016;2023-01-25T11:52:04;19.33;;;8.73;;
17032;SDS011;63208;52.178;21.016;2023-01-25T11:58:34;20.83;;;9.53;;
17032;SDS011;63208;52.178;21.016;2023-01-25T12:05:07;18.03;;;8.50;;
17032;SDS011;63208;52.178;21.016;2023-01-25T12:13:34;15.17;;;7.03;;
17032;SDS011;63208;52.178;21.016;2023-01-25T12:16:14;23.97;;;9.50;;
17032;SDS011;63208;52.178;21.016;2023-01-25T12:18:57;14.43;;;6.97;;
17032;SDS011;63208;52.178;21.016;2023-01-25T12:21:48;18.37;;;8.90;;
17032;SDS011;63208;52.178;21.016;2023-01-25T12:24:31;31.97;;;12.23;;
17032;SDS011;63208;52.178;21.016;2023-01-25T12:27:10;21.97;;;8.60;;
17032;SDS011;63208;52.178;21.016;2023-01-25T12:29:47;29.27;;;11.87;;
17032;SDS011;63208;52.178;21.016;2023-01-25T12:32:20;28.80;;;10.23;;
17032;SDS011;63208;52.178;21.016;2023-01-25T12:34:56;25.47;;;8.43;;
17032;SDS011;63208;52.178;21.016;2023-01-25T12:40:08;27.53;;;11.23;;
17032;SDS011;63208;52.178;21.016;2023-01-25T12:42:45;28.77;;;10.37;;
17032;SDS011;63208;52.178;21.016;2023-01-25T12:48:09;23.90;;;9.23;;
17032;SDS011;63208;52.178;21.016;2023-01-25T12:50:44;24.17;;;9.03;;
17032;SDS011;63208;52.178;21.016;2023-01-25T12:53:22;29.37;;;11.43;;
17032;SDS011;63208;52.178;21.016;2023-01-25T12:55:53;21.83;;;11.13;;
17032;SDS011;63208;52.178;21.016;2023-01-25T13:03:54;20.63;;;8.43;;
17032;SDS011;63208;52.178;21.016;2023-01-25T13:06:32;30.10;;;9.30;;
17032;SDS011;63208;52.178;21.016;2023-01-25T13:09:09;29.47;;;11.37;;
17032;SDS011;63208;52.178;21.016;2023-01-25T13:17:48;20.13;;;8.57;;
17032;SDS011;63208;52.178;21.016;2023-01-25T13:27:01;22.57;;;9.27;;
17032;SDS011;63208;52.178;21.016;2023-01-25T13:29:41;28.50;;;11.47;;
17032;SDS011;63208;52.178;21.016;2023-01-25T13:32:12;28.40;;;10.03;;
17032;SDS011;63208;52.178;21.016;2023-01-25T13:34:58;30.10;;;12.37;;
17032;SDS011;63208;52.178;21.016;2023-01-25T13:37:26;20.90;;;8.80;;
17032;SDS011;63208;52.178;21.016;2023-01-25T13:39:55;26.23;;;10.13;;
17032;SDS011;63208;52.178;21.016;2023-01-25T13:42:22;32.67;;;12.20;;
17032;SDS011;63208;52.178;21.016;2023-01-25T13:44:52;31.00;;;10.37;;
17032;SDS011;63208;52.178;21.016;2023-01-25T13:47:21;30.97;;;11.90;;
17032;SDS011;63208;52.178;21.016;2023-01-25T13:49:51;23.43;;;9.37;;
17032;SDS011;63208;52.178;21.016;2023-01-25T13:52:24;34.50;;;11.53;;
17032;SDS011;63208;52.178;21.016;2023-01-25T13:54:56;31.50;;;11.97;;
17032;SDS011;63208;52.178;21.016;2023-01-25T13:57:24;26.80;;;11.37;;
17032;SDS011;63208;52.178;21.016;2023-01-25T13:59:59;33.70;;;12.40;;
17032;SDS011;63208;52.178;21.016;2023-01-25T14:02:27;24.10;;;11.30;;
17032;SDS011;63208;52.178;21.016;2023-01-25T14:04:55;28.77;;;10.77;;
17032;SDS011;63208;52.178;21.016;2023-01-25T14:07:26;37.27;;;13.03;;
17032;SDS011;63208;52.178;21.016;2023-01-25T14:09:57;32.57;;;12.00;;
17032;SDS011;63208;52.178;21.016;2023-01-25T14:12:33;27.33;;;10.57;;
17032;SDS011;63208;52.178;21.016;2023-01-25T14:18:34;32.63;;;12.17;;
17032;SDS011;63208;52.178;21.016;2023-01-25T14:21:08;32.43;;;12.00;;
17032;SDS011;63208;52.178;21.016;2023-01-25T14:23:39;26.97;;;11.83;;
17032;SDS011;63208;52.178;21.016;2023-01-25T14:26:14;34.07;;;12.17;;
17032;SDS011;63208;52.178;21.016;2023-01-25T14:40:31;26.67;;;11.40;;
17032;SDS011;63208;52.178;21.016;2023-01-25T14:42:59;28.40;;;12.07;;
17032;SDS011;63208;52.178;21.016;2023-01-25T14:45:27;28.17;;;11.77;;
17032;SDS011;63208;52.178;21.016;2023-01-25T14:51:16;32.00;;;11.13;;
17032;SDS011;63208;52.178;21.016;2023-01-25T14:56:43;27.87;;;12.77;;
17032;SDS011;63208;52.178;21.016;2023-01-25T15:04:37;28.47;;;12.03;;
17032;SDS011;63208;52.178;21.016;2023-01-25T15:21:54;26.20;;;10.17;;
17032;SDS011;63208;52.178;21.016;2023-01-25T15:38:08;25.83;;;9.63;;
17032;SDS011;63208;52.178;21.016;2023-01-25T15:40:38;21.80;;;8.83;;
17032;SDS011;63208;52.178;21.016;2023-01-25T15:43:08;25.17;;;11.43;;
17032;SDS011;63208;52.178;21.016;2023-01-25T15:48:22;24.63;;;11.13;;
17032;SDS011;63208;52.178;21.016;2023-01-25T15:54:20;27.17;;;11.70;;
17032;SDS011;63208;52.178;21.016;2023-01-25T15:56:49;29.03;;;12.30;;
17032;SDS011;63208;52.178;21.016;2023-01-25T15:59:21;24.13;;;10.67;;
17032;SDS011;63208;52.178;21.016;2023-01-25T16:01:48;27.30;;;11.03;;
17032;SDS011;63208;52.178;21.016;2023-01-25T16:04:41;28.50;;;11.27;;
17032;SDS011;63208;52.178;21.016;2023-01-25T16:07:08;29.90;;;11.73;;
17032;SDS011;63208;52.178;21.016;2023-01-25T16:10:10;30.93;;;12.27;;
17032;SDS011;63208;52.178;21.016;2023-01-25T16:16:02;26.27;;;10.57;;
17032;SDS011;63208;52.178;21.016;2023-01-25T16:18:33;24.20;;;10.13;;
17032;SDS011;63208;52.178;21.016;2023-01-25T16:21:01;23.33;;;11.03;;
17032;SDS011;63208;52.178;21.016;2023-01-25T16:23:28;21.70;;;9.33;;
17032;SDS011;63208;52.178;21.016;2023-01-25T16:25:57;21.53;;;9.77;;
17032;SDS011;63208;52.178;21.016;2023-01-25T16:53:12;25.80;;;11.00;;
17032;SDS011;63208;52.178;21.016;2023-01-25T16:55:40;30.40;;;12.73;;
17032;SDS011;63208;52.178;21.016;2023-01-25T17:00:35;29.67;;;11.53;;
17032;SDS011;63208;52.178;21.016;2023-01-25T17:03:03;35.70;;;13.00;;
17032;SDS011;63208;52.178;21.016;2023-01-25T17:05:30;30.87;;;12.37;;
17032;SDS011;63208;52.178;21.016;2023-01-25T17:07:58;33.77;;;12.67;;
17032;SDS011;63208;52.178;21.016;2023-01-25T17:10:27;30.00;;;11.50;;
17032;SDS011;63208;52.178;21.016;2023-01-25T17:12:58;31.47;;;11.53;;
17032;SDS011;63208;52.178;21.016;2023-01-25T17:15:26;26.37;;;10.47;;
17032;SDS011;63208;52.178;21.016;2023-01-25T17:21:12;28.23;;;10.47;;
17032;SDS011;63208;52.178;21.016;2023-01-25T17:23:58;30.97;;;12.07;;
17032;SDS011;63208;52.178;21.016;2023-01-25T17:38:23;23.40;;;9.57;;
17032;SDS011;63208;52.178;21.016;2023-01-25T17:41:01;24.27;;;9.93;;
17032;SDS011;63208;52.178;21.016;2023-01-25T17:43:30;25.27;;;11.47;;
17032;SDS011;63208;52.178;21.016;2023-01-25T17:46:09;28.40;;;10.77;;
17032;SDS011;63208;52.178;21.016;2023-01-25T17:48:38;28.83;;;12.77;;
17032;SDS011;63208;52.178;21.016;2023-01-25T17:51:06;26.73;;;11.53;;
17032;SDS011;63208;52.178;21.016;2023-01-25T17:53:33;30.03;;;10.73;;
17032;SDS011;63208;52.178;21.016;2023-01-25T17:56:14;32.07;;;12.73;;
17032;SDS011;63208;52.178;21.016;2023-01-25T18:02:08;28.73;;;10.50;;
17032;SDS011;63208;52.178;21.016;2023-01-25T18:04:44;29.20;;;11.20;;
17032;SDS011;63208;52.178;21.016;2023-01-25T18:07:12;29.33;;;10.97;;
17032;SDS011;63208;52.178;21.016;2023-01-25T18:09:46;37.27;;;12.83;;
17032;SDS011;63208;52.178;21.016;2023-01-25T18:12:14;26.53;;;10.47;;
17032;SDS011;63208;52.178;21.016;2023-01-25T18:14:43;25.17;;;12.33;;
17032;SDS011;63208;52.178;21.016;2023-01-25T18:20:12;18.77;;;8.67;;
17032;SDS011;63208;52.178;21.016;2023-01-25T18:22:40;22.17;;;7.73;;
17032;SDS011;63208;52.178;21.016;2023-01-25T18:25:15;23.57;;;9.00;;
17032;SDS011;63208;52.178;21.016;2023-01-25T18:27:56;21.43;;;9.27;;
17032;SDS011;63208;52.178;21.016;2023-01-25T18:30:31;30.10;;;13.77;;
17032;SDS011;63208;52.178;21.016;2023-01-25T18:33:00;24.93;;;10.53;;
17032;SDS011;63208;52.178;21.016;2023-01-25T18:38:47;18.83;;;9.50;;
17032;SDS011;63208;52.178;21.016;2023-01-25T18:41:15;28.50;;;11.20;;
17032;SDS011;63208;52.178;21.016;2023-01-25T18:46:45;26.30;;;11.03;;
17032;SDS011;63208;52.178;21.016;2023-01-25T19:04:32;28.20;;;11.67;;
17032;SDS011;63208;52.178;21.016;2023-01-25T19:10:45;23.23;;;10.80;;
17032;SDS011;63208;52.178;21.016;2023-01-25T19:23:11;24.50;;;9.03;;
17032;SDS011;63208;52.178;21.016;2023-01-25T19:25:41;22.43;;;9.43;;
17032;SDS011;63208;52.178;21.016;2023-01-25T19:28:17;20.20;;;9.63;;
17032;SDS011;63208;52.178;21.016;2023-01-25T19:37:09;24.77;;;10.13;;
17032;SDS011;63208;52.178;21.016;2023-01-25T19:39:39;23.00;;;9.40;;
17032;SDS011;63208;52.178;21.016;2023-01-25T19:45:00;20.07;;;10.17;;
17032;SDS011;63208;52.178;21.016;2023-01-25T19:47:27;27.03;;;10.53;;
17032;SDS011;63208;52.178;21.016;2023-01-25T19:49:54;21.83;;;9.97;;
17032;SDS011;63208;52.178;21.016;2023-01-25T19:52:24;24.80;;;10.33;;
17032;SDS011;63208;52.178;21.016;2023-01-25T19:55:06;23.30;;;9.73;;
17032;SDS011;63208;52.178;21.016;2023-01-25T19:57:51;25.53;;;10.83;;
17032;SDS011;63208;52.178;21.016;2023-01-25T20:06:57;27.87;;;10.17;;
17032;SDS011;63208;52.178;21.016;2023-01-25T20:09:50;22.57;;;10.27;;
17032;SDS011;63208;52.178;21.016;2023-01-25T20:12:47;25.73;;;9.83;;
17032;SDS011;63208;52.178;21.016;2023-01-25T20:25:33;23.60;;;10.13;;
17032;SDS011;63208;52.178;21.016;2023-01-25T20:28:02;23.13;;;10.57;;
17032;SDS011;63208;52.178;21.016;2023-01-25T20:46:44;26.10;;;9.90;;
17032;SDS011;63208;52.178;21.016;2023-01-25T20:49:12;28.40;;;10.67;;
17032;SDS011;63208;52.178;21.016;2023-01-25T20:51:41;28.97;;;11.07;;
17032;SDS011;63208;52.178;21.016;2023-01-25T20:54:10;29.30;;;12.47;;
17032;SDS011;63208;52.178;21.016;2023-01-25T20:56:37;28.23;;;10.73;;
17032;SDS011;63208;52.178;21.016;2023-01-25T20:59:07;27.43;;;11.00;;
17032;SDS011;63208;52.178;21.016;2023-01-25T21:01:36;26.73;;;10.23;;
17032;SDS011;63208;52.178;21.016;2023-01-25T21:04:04;26.60;;;10.87;;
17032;SDS011;63208;52.178;21.016;2023-01-25T21:06:33;26.00;;;11.27;;
17032;SDS011;63208;52.178;21.016;2023-01-25T21:09:02;27.30;;;10.13;;
17032;SDS011;63208;52.178;21.016;2023-01-25T21:11:32;27.97;;;11.83;;
17032;SDS011;63208;52.178;21.016;2023-01-25T21:14:00;26.80;;;9.87;;
17032;SDS011;63208;52.178;21.016;2023-01-25T21:16:27;28.60;;;11.10;;
17032;SDS011;63208;52.178;21.016;2023-01-25T21:18:56;29.23;;;11.40;;
17032;SDS011;63208;52.178;21.016;2023-01-25T21:21:26;27.30;;;10.97;;
17032;SDS011;63208;52.178;21.016;2023-01-25T21:23:54;26.50;;;11.27;;
17032;SDS011;63208;52.178;21.016;2023-01-25T21:26:24;25.27;;;10.47;;
17032;SDS011;63208;52.178;21.016;2023-01-25T21:28:53;26.47;;;10.90;;
17032;SDS011;63208;52.178;21.016;2023-01-25T21:31:23;31.20;;;12.63;;
17032;SDS011;63208;52.178;21.016;2023-01-25T21:33:52;27.57;;;10.93;;
17032;SDS011;63208;52.178;21.016;2023-01-25T21:36:22;28.07;;;10.80;;
17032;SDS011;63208;52.178;21.016;2023-01-25T21:38:51;27.73;;;10.87;;
17032;SDS011;63208;52.178;21.016;2023-01-25T21:41:22;26.13;;;12.27;;
17032;SDS011;63208;52.178;21.016;2023-01-25T21:43:57;27.63;;;11.87;;
17032;SDS011;63208;52.178;21.016;2023-01-25T21:46:43;30.17;;;11.93;;
17032;SDS011;63208;52.178;21.016;2023-01-25T21:49:12;28.20;;;11.40;;
17032;SDS011;63208;52.178;21.016;2023-01-25T21:51:58;24.90;;;11.00;;
17032;SDS011;63208;52.178;21.016;2023-01-25T21:54:27;26.37;;;10.97;;
17032;SDS011;63208;52.178;21.016;2023-01-25T21:56:55;32.13;;;11.87;;
17032;SDS011;63208;52.178;21.016;2023-01-25T21:59:24;25.63;;;10.87;;
17032;SDS011;63208;52.178;21.016;2023-01-25T22:01:51;27.23;;;11.73;;
17032;SDS011;63208;52.178;21.016;2023-01-25T22:04:19;26.67;;;11.30;;
17032;SDS011;63208;52.178;21.016;2023-01-25T22:06:47;27.03;;;10.97;;
17032;SDS011;63208;52.178;21.016;2023-01-25T22:09:18;28.70;;;11.33;;
17032;SDS011;63208;52.178;21.016;2023-01-25T22:11:46;27.90;;;12.03;;
17032;SDS011;63208;52.178;21.016;2023-01-25T22:14:14;32.70;;;13.60;;
17032;SDS011;63208;52.178;21.016;2023-01-25T22:16:43;27.50;;;12.20;;
17032;SDS011;63208;52.178;21.016;2023-01-25T22:19:10;30.57;;;11.93;;
17032;SDS011;63208;52.178;21.016;2023-01-25T22:21:37;35.83;;;13.97;;
17032;SDS011;63208;52.178;21.016;2023-01-25T22:24:05;33.73;;;13.33;;
17032;SDS011;63208;52.178;21.016;2023-01-25T22:26:42;34.50;;;13.53;;
17032;SDS011;63208;52.178;21.016;2023-01-25T22:29:12;28.40;;;12.43;;
17032;SDS011;63208;52.178;21.016;2023-01-25T22:31:40;28.17;;;11.67;;
17032;SDS011;63208;52.178;21.016;2023-01-25T22:34:08;31.37;;;14.40;;
17032;SDS011;63208;52.178;21.016;2023-01-25T22:36:35;30.83;;;13.40;;
17032;SDS011;63208;52.178;21.016;2023-01-25T22:39:03;31.30;;;12.97;;
17032;SDS011;63208;52.178;21.016;2023-01-25T22:41:30;36.77;;;13.07;;
17032;SDS011;63208;52.178;21.016;2023-01-25T22:43:59;32.47;;;12.53;;
17032;SDS011;63208;52.178;21.016;2023-01-25T22:46:27;32.23;;;13.73;;
17032;SDS011;63208;52.178;21.016;2023-01-25T22:48:55;27.37;;;12.50;;
17032;SDS011;63208;52.178;21.016;2023-01-25T22:51:23;29.57;;;12.30;;
17032;SDS011;63208;52.178;21.016;2023-01-25T22:53:51;28.80;;;12.53;;
17032;SDS011;63208;52.178;21.016;2023-01-25T22:56:20;30.93;;;12.50;;
17032;SDS011;63208;52.178;21.016;2023-01-25T22:58:49;35.43;;;13.50;;
17032;SDS011;63208;52.178;21.016;2023-01-25T23:01:18;29.13;;;13.30;;
17032;SDS011;63208;52.178;21.016;2023-01-25T23:03:47;29.10;;;13.33;;
17032;SDS011;63208;52.178;21.016;2023-01-25T23:06:15;29.93;;;12.53;;
17032;SDS011;63208;52.178;21.016;2023-01-25T23:08:44;26.83;;;11.90;;
17032;SDS011;63208;52.178;21.016;2023-01-25T23:11:12;26.43;;;12.47;;
17032;SDS011;63208;52.178;21.016;2023-01-25T23:13:41;23.30;;;11.57;;
17032;SDS011;63208;52.178;21.016;2023-01-25T23:16:31;26.47;;;13.10;;
17032;SDS011;63208;52.178;21.016;2023-01-25T23:18:58;27.37;;;12.53;;
17032;SDS011;63208;52.178;21.016;2023-01-25T23:21:25;31.27;;;13.70;;
17032;SDS011;63208;52.178;21.016;2023-01-25T23:23:54;27.37;;;12.80;;
17032;SDS011;63208;52.178;21.016;2023-01-25T23:26:21;30.73;;;13.10;;
17032;SDS011;63208;52.178;21.016;2023-01-25T23:28:49;33.20;;;12.90;;
17032;SDS011;63208;52.178;21.016;2023-01-25T23:31:17;33.43;;;13.13;;
17032;SDS011;63208;52.178;21.016;2023-01-25T23:33:48;32.20;;;11.67;;
17032;SDS011;63208;52.178;21.016;2023-01-25T23:36:17;29.17;;;12.47;;
17032;SDS011;63208;52.178;21.016;2023-01-25T23:38:45;31.03;;;13.03;;
17032;SDS011;63208;52.178;21.016;2023-01-25T23:41:13;25.13;;;12.07;;
17032;SDS011;63208;52.178;21.016;2023-01-25T23:43:41;29.07;;;12.83;;
17032;SDS011;63208;52.178;21.016;2023-01-25T23:46:09;29.00;;;12.57;;
17032;SDS011;63208;52.178;21.016;2023-01-25T23:48:38;29.93;;;12.77;;
17032;SDS011;63208;52.178;21.016;2023-01-25T23:51:08;30.40;;;12.93;;
17032;SDS011;63208;52.178;21.016;2023-01-25T23:53:36;34.77;;;12.80;;
17032;SDS011;63208;52.178;21.016;2023-01-25T23:56:05;29.77;;;13.60;;
17032;SDS011;63208;52.178;21.016;2023-01-25T23:58:35;34.10;;;13.07;;
